sensor_id;sensor_type;location;lat;lon;timestamp;P1;durP1;ratioP1;P2;durP2;ratioP2
64907;SDS011;69061;52.236;5.188;2024-03-23T00:54:27;63.00;;;16.45;;
64907;SDS011;69061;52.236;5.188;2024-03-23T00:56:53;43.67;;;14.18;;
64907;SDS011;69061;52.236;5.188;2024-03-23T00:59:20;50.90;;;14.38;;
64907;SDS011;69061;52.236;5.188;2024-03-23T01:01:47;38.88;;;14.20;;
64907;SDS011;69061;52.236;5.188;2024-03-23T01:04:13;53.53;;;17.45;;
64907;SDS011;69061;52.236;5.188;2024-03-23T01:06:39;53.75;;;17.95;;
64907;SDS011;69061;52.236;5.188;2024-03-23T01:09:08;59.17;;;16.13;;
64907;SDS011;69061;52.236;5.188;2024-03-23T01:11:35;48.38;;;15.27;;
64907;SDS011;69061;52.236;5.188;2024-03-23T01:14:02;45.25;;;15.75;;
64907;SDS011;69061;52.236;5.188;2024-03-23T01:16:28;55.40;;;15.60;;
64907;SDS011;69061;52.236;5.188;2024-03-23T01:18:55;67.30;;;18.70;;
64907;SDS011;69061;52.236;5.188;2024-03-23T01:21:21;58.30;;;14.02;;
64907;SDS011;69061;52.236;5.188;2024-03-23T01:23:48;41.30;;;13.70;;
64907;SDS011;69061;52.236;5.188;2024-03-23T01:26:15;42.47;;;13.52;;
64907;SDS011;69061;52.236;5.188;2024-03-23T01:28:42;49.20;;;13.88;;
64907;SDS011;69061;52.236;5.188;2024-03-23T01:31:08;61.10;;;16.08;;
64907;SDS011;69061;52.236;5.188;2024-03-23T01:33:35;44.70;;;15.70;;
64907;SDS011;69061;52.236;5.188;2024-03-23T01:36:00;73.20;;;17.88;;
64907;SDS011;69061;52.236;5.188;2024-03-23T01:38:27;54.97;;;14.68;;
64907;SDS011;69061;52.236;5.188;2024-03-23T01:40:56;49.05;;;14.95;;
64907;SDS011;69061;52.236;5.188;2024-03-23T01:43:25;52.35;;;16.23;;
64907;SDS011;69061;52.236;5.188;2024-03-23T01:45:51;54.15;;;16.02;;
64907;SDS011;69061;52.236;5.188;2024-03-23T01:48:19;57.60;;;16.30;;
64907;SDS011;69061;52.236;5.188;2024-03-23T01:50:45;48.95;;;15.88;;
64907;SDS011;69061;52.236;5.188;2024-03-23T01:53:13;39.63;;;12.93;;
64907;SDS011;69061;52.236;5.188;2024-03-23T01:55:42;49.42;;;15.77;;
64907;SDS011;69061;52.236;5.188;2024-03-23T01:58:09;63.50;;;15.88;;
64907;SDS011;69061;52.236;5.188;2024-03-23T02:00:36;47.38;;;15.80;;
64907;SDS011;69061;52.236;5.188;2024-03-23T02:03:11;55.13;;;15.57;;
64907;SDS011;69061;52.236;5.188;2024-03-23T02:05:47;50.20;;;16.33;;
64907;SDS011;69061;52.236;5.188;2024-03-23T02:08:14;50.03;;;14.52;;
64907;SDS011;69061;52.236;5.188;2024-03-23T02:10:39;51.58;;;15.10;;
64907;SDS011;69061;52.236;5.188;2024-03-23T02:13:06;55.00;;;14.85;;
64907;SDS011;69061;52.236;5.188;2024-03-23T02:15:32;47.28;;;14.60;;
64907;SDS011;69061;52.236;5.188;2024-03-23T02:18:00;56.00;;;14.88;;
64907;SDS011;69061;52.236;5.188;2024-03-23T02:20:26;47.22;;;13.88;;
64907;SDS011;69061;52.236;5.188;2024-03-23T02:22:54;53.33;;;15.45;;
64907;SDS011;69061;52.236;5.188;2024-03-23T02:25:20;50.58;;;12.90;;
64907;SDS011;69061;52.236;5.188;2024-03-23T02:27:49;43.55;;;13.60;;
64907;SDS011;69061;52.236;5.188;2024-03-23T02:30:14;48.63;;;13.63;;
64907;SDS011;69061;52.236;5.188;2024-03-23T02:32:41;46.42;;;11.63;;
64907;SDS011;69061;52.236;5.188;2024-03-23T02:35:07;39.20;;;13.05;;
64907;SDS011;69061;52.236;5.188;2024-03-23T02:37:33;39.97;;;11.50;;
64907;SDS011;69061;52.236;5.188;2024-03-23T02:40:00;38.35;;;12.40;;
64907;SDS011;69061;52.236;5.188;2024-03-23T02:42:27;34.88;;;10.73;;
64907;SDS011;69061;52.236;5.188;2024-03-23T02:44:53;30.02;;;9.38;;
64907;SDS011;69061;52.236;5.188;2024-03-23T02:47:20;27.45;;;9.35;;
64907;SDS011;69061;52.236;5.188;2024-03-23T02:49:46;31.55;;;9.30;;
64907;SDS011;69061;52.236;5.188;2024-03-23T02:52:13;27.10;;;8.80;;
64907;SDS011;69061;52.236;5.188;2024-03-23T02:54:39;46.60;;;11.73;;
64907;SDS011;69061;52.236;5.188;2024-03-23T02:57:11;33.05;;;9.63;;
64907;SDS011;69061;52.236;5.188;2024-03-23T02:59:37;39.63;;;9.27;;
64907;SDS011;69061;52.236;5.188;2024-03-23T03:02:04;36.67;;;8.90;;
64907;SDS011;69061;52.236;5.188;2024-03-23T03:04:30;40.83;;;8.85;;
64907;SDS011;69061;52.236;5.188;2024-03-23T03:06:57;30.27;;;9.45;;
64907;SDS011;69061;52.236;5.188;2024-03-23T03:09:23;33.28;;;9.13;;
64907;SDS011;69061;52.236;5.188;2024-03-23T03:11:50;35.03;;;8.20;;
64907;SDS011;69061;52.236;5.188;2024-03-23T03:14:17;37.38;;;9.60;;
64907;SDS011;69061;52.236;5.188;2024-03-23T03:16:45;38.08;;;9.25;;
64907;SDS011;69061;52.236;5.188;2024-03-23T03:19:10;28.20;;;8.05;;
64907;SDS011;69061;52.236;5.188;2024-03-23T03:21:37;30.05;;;7.40;;
64907;SDS011;69061;52.236;5.188;2024-03-23T03:24:03;27.27;;;7.78;;
64907;SDS011;69061;52.236;5.188;2024-03-23T03:26:32;29.52;;;7.72;;
64907;SDS011;69061;52.236;5.188;2024-03-23T03:28:57;30.00;;;7.78;;
64907;SDS011;69061;52.236;5.188;2024-03-23T03:31:26;39.97;;;9.07;;
64907;SDS011;69061;52.236;5.188;2024-03-23T03:33:51;25.58;;;8.10;;
64907;SDS011;69061;52.236;5.188;2024-03-23T03:36:18;35.20;;;7.97;;
64907;SDS011;69061;52.236;5.188;2024-03-23T03:38:44;29.08;;;7.53;;
64907;SDS011;69061;52.236;5.188;2024-03-23T03:41:10;26.35;;;7.68;;
64907;SDS011;69061;52.236;5.188;2024-03-23T03:43:36;24.13;;;7.68;;
64907;SDS011;69061;52.236;5.188;2024-03-23T03:46:04;39.58;;;7.45;;
64907;SDS011;69061;52.236;5.188;2024-03-23T03:48:31;27.23;;;7.03;;
64907;SDS011;69061;52.236;5.188;2024-03-23T03:50:58;29.20;;;7.90;;
64907;SDS011;69061;52.236;5.188;2024-03-23T03:53:24;30.52;;;7.75;;
64907;SDS011;69061;52.236;5.188;2024-03-23T03:55:52;27.15;;;6.30;;
64907;SDS011;69061;52.236;5.188;2024-03-23T03:58:19;30.40;;;9.00;;
64907;SDS011;69061;52.236;5.188;2024-03-23T04:00:45;31.92;;;7.68;;
64907;SDS011;69061;52.236;5.188;2024-03-23T04:03:11;45.75;;;8.27;;
64907;SDS011;69061;52.236;5.188;2024-03-23T04:05:40;28.23;;;6.75;;
64907;SDS011;69061;52.236;5.188;2024-03-23T04:08:07;25.15;;;5.93;;
64907;SDS011;69061;52.236;5.188;2024-03-23T04:10:33;19.80;;;5.97;;
64907;SDS011;69061;52.236;5.188;2024-03-23T04:13:00;22.80;;;6.43;;
64907;SDS011;69061;52.236;5.188;2024-03-23T04:15:29;21.73;;;7.15;;
64907;SDS011;69061;52.236;5.188;2024-03-23T04:17:54;18.48;;;5.55;;
64907;SDS011;69061;52.236;5.188;2024-03-23T04:20:27;21.38;;;5.60;;
64907;SDS011;69061;52.236;5.188;2024-03-23T04:22:54;24.33;;;5.60;;
64907;SDS011;69061;52.236;5.188;2024-03-23T04:25:20;21.33;;;5.40;;
64907;SDS011;69061;52.236;5.188;2024-03-23T04:27:47;25.17;;;5.97;;
64907;SDS011;69061;52.236;5.188;2024-03-23T04:30:14;17.15;;;5.97;;
64907;SDS011;69061;52.236;5.188;2024-03-23T04:32:40;38.38;;;7.60;;
64907;SDS011;69061;52.236;5.188;2024-03-23T04:35:07;21.17;;;5.95;;
64907;SDS011;69061;52.236;5.188;2024-03-23T04:37:34;19.33;;;7.40;;
64907;SDS011;69061;52.236;5.188;2024-03-23T04:40:03;22.27;;;5.85;;
64907;SDS011;69061;52.236;5.188;2024-03-23T04:42:30;21.65;;;5.53;;
64907;SDS011;69061;52.236;5.188;2024-03-23T04:45:00;22.05;;;6.50;;
64907;SDS011;69061;52.236;5.188;2024-03-23T04:47:27;25.55;;;5.72;;
64907;SDS011;69061;52.236;5.188;2024-03-23T04:49:53;24.10;;;6.95;;
64907;SDS011;69061;52.236;5.188;2024-03-23T04:52:19;16.13;;;5.65;;
64907;SDS011;69061;52.236;5.188;2024-03-23T04:54:46;32.92;;;6.15;;
64907;SDS011;69061;52.236;5.188;2024-03-23T04:57:14;17.05;;;5.57;;
64907;SDS011;69061;52.236;5.188;2024-03-23T04:59:41;26.48;;;6.30;;
64907;SDS011;69061;52.236;5.188;2024-03-23T05:02:08;27.58;;;6.65;;
64907;SDS011;69061;52.236;5.188;2024-03-23T05:04:35;16.80;;;5.72;;
64907;SDS011;69061;52.236;5.188;2024-03-23T05:07:03;32.88;;;6.32;;
64907;SDS011;69061;52.236;5.188;2024-03-23T05:09:29;30.25;;;5.70;;
64907;SDS011;69061;52.236;5.188;2024-03-23T05:11:57;17.27;;;5.10;;
64907;SDS011;69061;52.236;5.188;2024-03-23T05:14:25;14.68;;;5.63;;
64907;SDS011;69061;52.236;5.188;2024-03-23T05:16:51;23.33;;;5.80;;
64907;SDS011;69061;52.236;5.188;2024-03-23T05:19:17;22.05;;;6.75;;
64907;SDS011;69061;52.236;5.188;2024-03-23T05:21:45;25.52;;;5.90;;
64907;SDS011;69061;52.236;5.188;2024-03-23T05:24:11;20.08;;;4.95;;
64907;SDS011;69061;52.236;5.188;2024-03-23T05:26:38;23.02;;;6.45;;
64907;SDS011;69061;52.236;5.188;2024-03-23T05:29:04;24.10;;;5.85;;
64907;SDS011;69061;52.236;5.188;2024-03-23T05:31:33;20.85;;;6.15;;
64907;SDS011;69061;52.236;5.188;2024-03-23T05:33:58;24.15;;;5.28;;
64907;SDS011;69061;52.236;5.188;2024-03-23T05:36:25;18.00;;;5.25;;
64907;SDS011;69061;52.236;5.188;2024-03-23T05:38:51;20.35;;;6.50;;
64907;SDS011;69061;52.236;5.188;2024-03-23T05:41:18;28.20;;;6.72;;
64907;SDS011;69061;52.236;5.188;2024-03-23T05:43:44;14.23;;;5.70;;
64907;SDS011;69061;52.236;5.188;2024-03-23T05:46:11;17.00;;;5.35;;
64907;SDS011;69061;52.236;5.188;2024-03-23T05:48:37;45.90;;;8.15;;
64907;SDS011;69061;52.236;5.188;2024-03-23T05:51:04;22.52;;;5.30;;
64907;SDS011;69061;52.236;5.188;2024-03-23T05:53:30;21.52;;;5.90;;
64907;SDS011;69061;52.236;5.188;2024-03-23T05:56:01;18.40;;;5.82;;
64907;SDS011;69061;52.236;5.188;2024-03-23T05:58:30;29.25;;;5.97;;
64907;SDS011;69061;52.236;5.188;2024-03-23T06:00:59;26.42;;;5.13;;
64907;SDS011;69061;52.236;5.188;2024-03-23T06:03:26;21.65;;;6.22;;
64907;SDS011;69061;52.236;5.188;2024-03-23T06:05:54;23.70;;;6.00;;
64907;SDS011;69061;52.236;5.188;2024-03-23T06:08:21;27.02;;;7.63;;
64907;SDS011;69061;52.236;5.188;2024-03-23T06:10:49;17.30;;;5.35;;
64907;SDS011;69061;52.236;5.188;2024-03-23T06:13:16;24.10;;;5.88;;
64907;SDS011;69061;52.236;5.188;2024-03-23T06:15:44;20.67;;;4.82;;
64907;SDS011;69061;52.236;5.188;2024-03-23T06:18:11;22.50;;;6.50;;
64907;SDS011;69061;52.236;5.188;2024-03-23T06:20:40;29.83;;;8.82;;
64907;SDS011;69061;52.236;5.188;2024-03-23T06:23:09;27.05;;;6.88;;
64907;SDS011;69061;52.236;5.188;2024-03-23T06:25:37;22.85;;;6.72;;
64907;SDS011;69061;52.236;5.188;2024-03-23T06:28:04;23.55;;;9.73;;
64907;SDS011;69061;52.236;5.188;2024-03-23T06:30:31;27.40;;;9.18;;
64907;SDS011;69061;52.236;5.188;2024-03-23T06:32:57;20.55;;;6.90;;
64907;SDS011;69061;52.236;5.188;2024-03-23T06:35:25;19.88;;;6.35;;
64907;SDS011;69061;52.236;5.188;2024-03-23T06:37:51;18.55;;;7.45;;
64907;SDS011;69061;52.236;5.188;2024-03-23T06:40:22;25.77;;;7.72;;
64907;SDS011;69061;52.236;5.188;2024-03-23T06:42:48;26.98;;;6.85;;
64907;SDS011;69061;52.236;5.188;2024-03-23T06:45:16;24.80;;;7.30;;
64907;SDS011;69061;52.236;5.188;2024-03-23T06:47:48;20.67;;;9.95;;
64907;SDS011;69061;52.236;5.188;2024-03-23T06:50:14;24.05;;;8.60;;
64907;SDS011;69061;52.236;5.188;2024-03-23T06:52:41;26.70;;;9.20;;
64907;SDS011;69061;52.236;5.188;2024-03-23T06:55:07;22.90;;;8.27;;
64907;SDS011;69061;52.236;5.188;2024-03-23T06:57:36;28.23;;;7.38;;
64907;SDS011;69061;52.236;5.188;2024-03-23T07:00:02;31.13;;;8.27;;
64907;SDS011;69061;52.236;5.188;2024-03-23T07:02:30;35.15;;;10.40;;
64907;SDS011;69061;52.236;5.188;2024-03-23T07:04:56;27.20;;;9.00;;
64907;SDS011;69061;52.236;5.188;2024-03-23T07:07:22;24.27;;;11.13;;
64907;SDS011;69061;52.236;5.188;2024-03-23T07:09:48;34.28;;;9.98;;
64907;SDS011;69061;52.236;5.188;2024-03-23T07:12:15;26.30;;;9.05;;
64907;SDS011;69061;52.236;5.188;2024-03-23T07:14:42;25.55;;;7.95;;
64907;SDS011;69061;52.236;5.188;2024-03-23T07:17:10;20.92;;;8.43;;
64907;SDS011;69061;52.236;5.188;2024-03-23T07:19:36;23.48;;;8.52;;
64907;SDS011;69061;52.236;5.188;2024-03-23T07:22:03;29.33;;;8.80;;
64907;SDS011;69061;52.236;5.188;2024-03-23T07:24:28;28.98;;;9.65;;
64907;SDS011;69061;52.236;5.188;2024-03-23T07:26:57;16.85;;;7.22;;
64907;SDS011;69061;52.236;5.188;2024-03-23T07:29:23;27.83;;;8.23;;
64907;SDS011;69061;52.236;5.188;2024-03-23T07:31:52;32.08;;;9.38;;
64907;SDS011;69061;52.236;5.188;2024-03-23T07:34:18;34.67;;;7.97;;
64907;SDS011;69061;52.236;5.188;2024-03-23T07:36:45;25.98;;;6.93;;
64907;SDS011;69061;52.236;5.188;2024-03-23T07:39:11;36.13;;;6.40;;
64907;SDS011;69061;52.236;5.188;2024-03-23T07:41:37;28.60;;;6.15;;
64907;SDS011;69061;52.236;5.188;2024-03-23T07:44:03;21.20;;;5.55;;
64907;SDS011;69061;52.236;5.188;2024-03-23T07:46:31;30.63;;;8.18;;
64907;SDS011;69061;52.236;5.188;2024-03-23T07:48:58;44.90;;;11.95;;
64907;SDS011;69061;52.236;5.188;2024-03-23T07:51:25;33.70;;;9.85;;
64907;SDS011;69061;52.236;5.188;2024-03-23T07:53:50;45.67;;;12.32;;
64907;SDS011;69061;52.236;5.188;2024-03-23T07:56:18;24.67;;;8.88;;
64907;SDS011;69061;52.236;5.188;2024-03-23T07:58:45;21.77;;;6.95;;
64907;SDS011;69061;52.236;5.188;2024-03-23T08:01:12;22.90;;;5.60;;
64907;SDS011;69061;52.236;5.188;2024-03-23T08:03:40;23.63;;;6.72;;
64907;SDS011;69061;52.236;5.188;2024-03-23T08:06:11;23.70;;;6.18;;
64907;SDS011;69061;52.236;5.188;2024-03-23T08:08:38;22.55;;;6.15;;
64907;SDS011;69061;52.236;5.188;2024-03-23T08:11:05;27.52;;;6.78;;
64907;SDS011;69061;52.236;5.188;2024-03-23T08:13:32;17.75;;;5.75;;
64907;SDS011;69061;52.236;5.188;2024-03-23T08:15:59;28.13;;;5.18;;
64907;SDS011;69061;52.236;5.188;2024-03-23T08:18:29;19.45;;;6.55;;
64907;SDS011;69061;52.236;5.188;2024-03-23T08:20:56;20.48;;;6.00;;
64907;SDS011;69061;52.236;5.188;2024-03-23T08:23:25;22.13;;;5.40;;
64907;SDS011;69061;52.236;5.188;2024-03-23T08:25:52;20.20;;;5.15;;
64907;SDS011;69061;52.236;5.188;2024-03-23T08:28:23;15.10;;;4.55;;
64907;SDS011;69061;52.236;5.188;2024-03-23T08:30:49;21.33;;;5.55;;
64907;SDS011;69061;52.236;5.188;2024-03-23T08:33:16;21.58;;;5.78;;
64907;SDS011;69061;52.236;5.188;2024-03-23T08:35:41;21.10;;;5.90;;
64907;SDS011;69061;52.236;5.188;2024-03-23T08:38:08;16.85;;;4.90;;
64907;SDS011;69061;52.236;5.188;2024-03-23T08:40:35;18.75;;;7.15;;
64907;SDS011;69061;52.236;5.188;2024-03-23T08:43:02;28.05;;;6.13;;
64907;SDS011;69061;52.236;5.188;2024-03-23T08:45:28;31.20;;;6.97;;
64907;SDS011;69061;52.236;5.188;2024-03-23T08:47:56;21.63;;;5.57;;
64907;SDS011;69061;52.236;5.188;2024-03-23T08:50:21;22.40;;;5.38;;
64907;SDS011;69061;52.236;5.188;2024-03-23T08:52:50;18.85;;;5.68;;
64907;SDS011;69061;52.236;5.188;2024-03-23T08:55:16;17.60;;;5.40;;
64907;SDS011;69061;52.236;5.188;2024-03-23T08:57:45;20.70;;;7.35;;
64907;SDS011;69061;52.236;5.188;2024-03-23T09:00:11;22.13;;;5.47;;
64907;SDS011;69061;52.236;5.188;2024-03-23T09:02:39;20.52;;;5.13;;
64907;SDS011;69061;52.236;5.188;2024-03-23T09:05:05;15.20;;;4.63;;
64907;SDS011;69061;52.236;5.188;2024-03-23T09:07:33;19.65;;;5.28;;
64907;SDS011;69061;52.236;5.188;2024-03-23T09:09:58;18.83;;;6.45;;
64907;SDS011;69061;52.236;5.188;2024-03-23T09:12:25;20.40;;;5.43;;
64907;SDS011;69061;52.236;5.188;2024-03-23T09:14:52;22.23;;;4.80;;
64907;SDS011;69061;52.236;5.188;2024-03-23T09:17:20;19.60;;;4.88;;
64907;SDS011;69061;52.236;5.188;2024-03-23T09:19:46;23.77;;;6.00;;
64907;SDS011;69061;52.236;5.188;2024-03-23T09:22:12;23.92;;;5.57;;
64907;SDS011;69061;52.236;5.188;2024-03-23T09:24:39;22.65;;;7.30;;
64907;SDS011;69061;52.236;5.188;2024-03-23T09:27:08;21.17;;;6.07;;
64907;SDS011;69061;52.236;5.188;2024-03-23T09:29:33;15.38;;;5.32;;
64907;SDS011;69061;52.236;5.188;2024-03-23T09:32:01;20.00;;;4.95;;
64907;SDS011;69061;52.236;5.188;2024-03-23T09:34:27;22.33;;;5.57;;
64907;SDS011;69061;52.236;5.188;2024-03-23T09:36:54;17.35;;;5.40;;
64907;SDS011;69061;52.236;5.188;2024-03-23T09:39:19;19.25;;;5.18;;
64907;SDS011;69061;52.236;5.188;2024-03-23T09:41:48;19.90;;;6.85;;
64907;SDS011;69061;52.236;5.188;2024-03-23T09:44:15;26.92;;;5.20;;
64907;SDS011;69061;52.236;5.188;2024-03-23T09:46:41;16.85;;;5.30;;
64907;SDS011;69061;52.236;5.188;2024-03-23T09:49:08;28.50;;;5.88;;
64907;SDS011;69061;52.236;5.188;2024-03-23T09:51:36;22.75;;;5.90;;
64907;SDS011;69061;52.236;5.188;2024-03-23T09:54:02;28.30;;;7.28;;
64907;SDS011;69061;52.236;5.188;2024-03-23T09:56:29;43.25;;;11.55;;
64907;SDS011;69061;52.236;5.188;2024-03-23T09:58:59;29.92;;;8.98;;
64907;SDS011;69061;52.236;5.188;2024-03-23T10:01:27;43.75;;;9.77;;
64907;SDS011;69061;52.236;5.188;2024-03-23T10:03:54;21.70;;;7.00;;
64907;SDS011;69061;52.236;5.188;2024-03-23T10:06:24;19.98;;;5.28;;
64907;SDS011;69061;52.236;5.188;2024-03-23T10:08:51;24.70;;;4.75;;
64907;SDS011;69061;52.236;5.188;2024-03-23T10:11:18;27.50;;;5.90;;
64907;SDS011;69061;52.236;5.188;2024-03-23T10:13:47;22.15;;;5.97;;
64907;SDS011;69061;52.236;5.188;2024-03-23T10:16:20;32.00;;;6.82;;
64907;SDS011;69061;52.236;5.188;2024-03-23T10:18:48;27.23;;;5.78;;
64907;SDS011;69061;52.236;5.188;2024-03-23T10:21:14;18.58;;;4.93;;
64907;SDS011;69061;52.236;5.188;2024-03-23T10:23:43;20.10;;;5.65;;
64907;SDS011;69061;52.236;5.188;2024-03-23T10:26:12;19.45;;;5.00;;
64907;SDS011;69061;52.236;5.188;2024-03-23T10:28:50;19.83;;;5.72;;
64907;SDS011;69061;52.236;5.188;2024-03-23T10:31:17;22.92;;;6.45;;
64907;SDS011;69061;52.236;5.188;2024-03-23T10:33:44;21.42;;;5.68;;
64907;SDS011;69061;52.236;5.188;2024-03-23T10:36:12;21.90;;;7.45;;
64907;SDS011;69061;52.236;5.188;2024-03-23T10:38:40;23.52;;;5.85;;
64907;SDS011;69061;52.236;5.188;2024-03-23T10:41:09;21.95;;;6.28;;
64907;SDS011;69061;52.236;5.188;2024-03-23T10:43:36;11.88;;;4.63;;
64907;SDS011;69061;52.236;5.188;2024-03-23T10:46:04;17.45;;;6.65;;
64907;SDS011;69061;52.236;5.188;2024-03-23T10:48:32;21.70;;;6.07;;
64907;SDS011;69061;52.236;5.188;2024-03-23T10:50:59;21.10;;;6.15;;
64907;SDS011;69061;52.236;5.188;2024-03-23T10:53:26;16.42;;;5.75;;
64907;SDS011;69061;52.236;5.188;2024-03-23T10:55:57;15.73;;;4.65;;
64907;SDS011;69061;52.236;5.188;2024-03-23T10:58:26;13.38;;;4.97;;
64907;SDS011;69061;52.236;5.188;2024-03-23T11:00:54;18.48;;;4.70;;
64907;SDS011;69061;52.236;5.188;2024-03-23T11:06:02;18.17;;;4.95;;
64907;SDS011;69061;52.236;5.188;2024-03-23T11:08:31;18.10;;;5.15;;
64907;SDS011;69061;52.236;5.188;2024-03-23T11:13:51;22.77;;;6.15;;
64907;SDS011;69061;52.236;5.188;2024-03-23T11:16:21;25.83;;;6.95;;
64907;SDS011;69061;52.236;5.188;2024-03-23T11:18:52;21.42;;;5.00;;
64907;SDS011;69061;52.236;5.188;2024-03-23T11:24:19;17.75;;;5.50;;
64907;SDS011;69061;52.236;5.188;2024-03-23T11:26:51;15.75;;;5.05;;
64907;SDS011;69061;52.236;5.188;2024-03-23T11:29:17;24.98;;;5.70;;
64907;SDS011;69061;52.236;5.188;2024-03-23T11:31:45;26.45;;;5.80;;
64907;SDS011;69061;52.236;5.188;2024-03-23T11:34:15;22.88;;;4.78;;
64907;SDS011;69061;52.236;5.188;2024-03-23T11:36:42;18.92;;;6.05;;
64907;SDS011;69061;52.236;5.188;2024-03-23T11:39:12;23.27;;;4.88;;
64907;SDS011;69061;52.236;5.188;2024-03-23T11:41:45;23.90;;;5.40;;
64907;SDS011;69061;52.236;5.188;2024-03-23T11:44:19;24.98;;;5.65;;
64907;SDS011;69061;52.236;5.188;2024-03-23T11:46:47;15.32;;;5.07;;
64907;SDS011;69061;52.236;5.188;2024-03-23T11:49:21;18.25;;;6.10;;
64907;SDS011;69061;52.236;5.188;2024-03-23T11:51:51;17.38;;;4.93;;
64907;SDS011;69061;52.236;5.188;2024-03-23T11:54:19;13.77;;;4.97;;
64907;SDS011;69061;52.236;5.188;2024-03-23T11:56:57;17.55;;;5.68;;
64907;SDS011;69061;52.236;5.188;2024-03-23T11:59:31;27.38;;;5.65;;
64907;SDS011;69061;52.236;5.188;2024-03-23T12:01:58;19.85;;;5.00;;
64907;SDS011;69061;52.236;5.188;2024-03-23T12:04:26;16.17;;;4.55;;
64907;SDS011;69061;52.236;5.188;2024-03-23T12:09:42;20.80;;;6.15;;
64907;SDS011;69061;52.236;5.188;2024-03-23T12:12:10;16.80;;;5.50;;
64907;SDS011;69061;52.236;5.188;2024-03-23T12:14:41;15.03;;;4.63;;
64907;SDS011;69061;52.236;5.188;2024-03-23T12:17:07;22.38;;;5.32;;
64907;SDS011;69061;52.236;5.188;2024-03-23T12:19:39;21.13;;;4.82;;
64907;SDS011;69061;52.236;5.188;2024-03-23T12:22:06;17.25;;;4.90;;
64907;SDS011;69061;52.236;5.188;2024-03-23T12:24:33;16.67;;;4.22;;
64907;SDS011;69061;52.236;5.188;2024-03-23T12:27:00;16.42;;;5.65;;
64907;SDS011;69061;52.236;5.188;2024-03-23T12:29:30;14.00;;;5.72;;
64907;SDS011;69061;52.236;5.188;2024-03-23T12:31:56;13.93;;;4.50;;
64907;SDS011;69061;52.236;5.188;2024-03-23T12:34:25;17.63;;;4.35;;
64907;SDS011;69061;52.236;5.188;2024-03-23T12:36:50;15.57;;;5.25;;
64907;SDS011;69061;52.236;5.188;2024-03-23T12:39:17;18.48;;;4.60;;
64907;SDS011;69061;52.236;5.188;2024-03-23T12:41:43;12.40;;;4.90;;
64907;SDS011;69061;52.236;5.188;2024-03-23T12:44:10;15.73;;;4.95;;
64907;SDS011;69061;52.236;5.188;2024-03-23T12:46:38;18.73;;;5.47;;
64907;SDS011;69061;52.236;5.188;2024-03-23T12:49:05;22.38;;;6.13;;
64907;SDS011;69061;52.236;5.188;2024-03-23T12:51:31;16.67;;;4.40;;
64907;SDS011;69061;52.236;5.188;2024-03-23T12:53:58;20.83;;;5.80;;
64907;SDS011;69061;52.236;5.188;2024-03-23T12:56:24;21.45;;;5.07;;
64907;SDS011;69061;52.236;5.188;2024-03-23T12:58:51;16.30;;;4.63;;
64907;SDS011;69061;52.236;5.188;2024-03-23T13:01:18;18.95;;;4.93;;
64907;SDS011;69061;52.236;5.188;2024-03-23T13:03:47;16.42;;;4.97;;
64907;SDS011;69061;52.236;5.188;2024-03-23T13:06:13;15.60;;;4.95;;
64907;SDS011;69061;52.236;5.188;2024-03-23T13:08:40;21.98;;;6.25;;
64907;SDS011;69061;52.236;5.188;2024-03-23T13:11:09;20.48;;;4.55;;
64907;SDS011;69061;52.236;5.188;2024-03-23T13:13:39;15.90;;;3.97;;
64907;SDS011;69061;52.236;5.188;2024-03-23T13:16:04;15.38;;;4.15;;
64907;SDS011;69061;52.236;5.188;2024-03-23T13:18:32;18.63;;;5.28;;
64907;SDS011;69061;52.236;5.188;2024-03-23T13:21:00;18.77;;;5.65;;
64907;SDS011;69061;52.236;5.188;2024-03-23T13:23:27;17.30;;;4.80;;
64907;SDS011;69061;52.236;5.188;2024-03-23T13:25:53;15.23;;;4.38;;
64907;SDS011;69061;52.236;5.188;2024-03-23T13:28:22;12.07;;;4.15;;
64907;SDS011;69061;52.236;5.188;2024-03-23T13:30:51;21.35;;;5.28;;
64907;SDS011;69061;52.236;5.188;2024-03-23T13:33:18;18.80;;;4.68;;
64907;SDS011;69061;52.236;5.188;2024-03-23T13:35:51;10.68;;;3.78;;
64907;SDS011;69061;52.236;5.188;2024-03-23T13:38:21;22.08;;;5.32;;
64907;SDS011;69061;52.236;5.188;2024-03-23T13:40:50;15.23;;;4.15;;
64907;SDS011;69061;52.236;5.188;2024-03-23T13:43:18;18.08;;;4.05;;
64907;SDS011;69061;52.236;5.188;2024-03-23T13:45:46;19.63;;;4.20;;
64907;SDS011;69061;52.236;5.188;2024-03-23T13:48:13;15.13;;;4.78;;
64907;SDS011;69061;52.236;5.188;2024-03-23T13:50:40;11.73;;;4.05;;
64907;SDS011;69061;52.236;5.188;2024-03-23T13:53:06;18.73;;;4.28;;
64907;SDS011;69061;52.236;5.188;2024-03-23T13:55:35;15.30;;;4.47;;
64907;SDS011;69061;52.236;5.188;2024-03-23T13:58:02;19.20;;;4.57;;
64907;SDS011;69061;52.236;5.188;2024-03-23T14:00:29;19.30;;;5.00;;
64907;SDS011;69061;52.236;5.188;2024-03-23T14:02:57;22.50;;;4.50;;
64907;SDS011;69061;52.236;5.188;2024-03-23T14:05:23;22.45;;;5.63;;
64907;SDS011;69061;52.236;5.188;2024-03-23T14:07:50;10.05;;;3.88;;
64907;SDS011;69061;52.236;5.188;2024-03-23T14:10:16;15.65;;;4.35;;
64907;SDS011;69061;52.236;5.188;2024-03-23T14:12:47;17.23;;;4.22;;
64907;SDS011;69061;52.236;5.188;2024-03-23T14:15:12;24.42;;;5.38;;
64907;SDS011;69061;52.236;5.188;2024-03-23T14:17:39;17.05;;;3.92;;
64907;SDS011;69061;52.236;5.188;2024-03-23T14:20:05;11.63;;;3.95;;
64907;SDS011;69061;52.236;5.188;2024-03-23T14:22:36;11.95;;;4.28;;
64907;SDS011;69061;52.236;5.188;2024-03-23T14:25:02;19.73;;;4.68;;
64907;SDS011;69061;52.236;5.188;2024-03-23T14:27:29;12.75;;;3.83;;
64907;SDS011;69061;52.236;5.188;2024-03-23T14:29:56;14.52;;;3.83;;
64907;SDS011;69061;52.236;5.188;2024-03-23T14:32:23;14.77;;;4.00;;
64907;SDS011;69061;52.236;5.188;2024-03-23T14:34:48;13.02;;;4.38;;
64907;SDS011;69061;52.236;5.188;2024-03-23T14:37:17;14.90;;;4.38;;
64907;SDS011;69061;52.236;5.188;2024-03-23T14:39:43;14.73;;;4.78;;
64907;SDS011;69061;52.236;5.188;2024-03-23T14:42:10;13.80;;;4.65;;
64907;SDS011;69061;52.236;5.188;2024-03-23T14:44:37;16.58;;;5.32;;
64907;SDS011;69061;52.236;5.188;2024-03-23T14:47:05;16.75;;;4.40;;
64907;SDS011;69061;52.236;5.188;2024-03-23T14:49:33;14.57;;;4.20;;
64907;SDS011;69061;52.236;5.188;2024-03-23T14:52:00;17.92;;;5.13;;
64907;SDS011;69061;52.236;5.188;2024-03-23T14:54:25;18.42;;;4.53;;
64907;SDS011;69061;52.236;5.188;2024-03-23T14:56:52;17.45;;;4.82;;
64907;SDS011;69061;52.236;5.188;2024-03-23T14:59:18;15.60;;;5.15;;
64907;SDS011;69061;52.236;5.188;2024-03-23T15:01:45;15.82;;;4.57;;
64907;SDS011;69061;52.236;5.188;2024-03-23T15:04:13;21.38;;;5.75;;
64907;SDS011;69061;52.236;5.188;2024-03-23T15:06:39;15.95;;;4.85;;
64907;SDS011;69061;52.236;5.188;2024-03-23T15:09:05;15.07;;;4.20;;
64907;SDS011;69061;52.236;5.188;2024-03-23T15:11:36;15.10;;;4.10;;
64907;SDS011;69061;52.236;5.188;2024-03-23T15:14:03;25.55;;;5.18;;
64907;SDS011;69061;52.236;5.188;2024-03-23T15:16:28;16.50;;;4.63;;
64907;SDS011;69061;52.236;5.188;2024-03-23T15:18:55;17.23;;;4.70;;
64907;SDS011;69061;52.236;5.188;2024-03-23T15:21:22;11.80;;;4.47;;
64907;SDS011;69061;52.236;5.188;2024-03-23T15:23:49;16.98;;;4.53;;
64907;SDS011;69061;52.236;5.188;2024-03-23T15:26:15;14.63;;;4.18;;
64907;SDS011;69061;52.236;5.188;2024-03-23T15:28:42;24.65;;;4.85;;
64907;SDS011;69061;52.236;5.188;2024-03-23T15:31:28;18.33;;;5.00;;
64907;SDS011;69061;52.236;5.188;2024-03-23T15:33:54;17.77;;;4.80;;
64907;SDS011;69061;52.236;5.188;2024-03-23T15:36:20;19.58;;;5.72;;
64907;SDS011;69061;52.236;5.188;2024-03-23T15:38:49;21.08;;;5.30;;